(°C)
14°
13°
13°
12°
12°
11°
11°
(°C)
12°
11°
10°
10°
10°
ÉNy
ÉÉN
É
É
É
É
É
(km/h)
4-9
3-8
3-7
3-7
3-6
3-6
3-6
(mm)
0
0
0
0
0
0
0
(%)
4
5
4
4
4
3
3

Napfelkelte

/ -13.3°
sun-icon
UV 5
05:19
20:51
Hold (fogyó sarló) (303°)
03:32
15:59

METAR Renton (KRNT)-ért

Idő Feltételek Hőmérséklet/
Harmatpont
Szél Látási viszonyok Időjárás Felhők Légnyomás Módosítás Nyers
VFR 15°C / 8.9°C 360º 3kt >10km - Clear 1015 - KRNT 260453Z 36003KT 10SM CLR 15/09 A2996 RMK AO2 SLP151 T01500089
VFR 16.7°C / 7.2°C 310º 4kt >10km - Clear 1014 - KRNT 260353Z 31004KT 10SM CLR 17/07 A2996 RMK AO2 SLP149 T01670072
VFR 18.9°C / 6.7°C variable 3kt >10km - Clear 1015 - KRNT 260253Z VRB03KT 10SM CLR 19/07 A2996 RMK AO2 SLP150 T01890067 56008
VFR 20°C / 7.2°C 240º 6kt >10km - Clear 1015 - KRNT 260153Z 24006KT 10SM CLR 20/07 A2996 RMK AO2 SLP151 T02000072
VFR 20.6°C / 7.8°C variable 5kt >10km - Few Clouds 4000ft 1015 - KRNT 260053Z VRB05KT 10SM FEW040 21/08 A2997 RMK AO2 SLP154 T02060078
VFR 21.1°C / 7.8°C >10km - Clear 1015 - KRNT 252353Z 10SM CLR 21/08 A2998 RMK AO2 SLP158 T02110078 10217 20172 58009
VFR 21.1°C / 7.8°C 190º 7kt Gust 16kt >10km - Clear 1016 - KRNT 252253Z 19007G16KT 10SM CLR 21/08 A3000 RMK AO2 SLP163 T02110078
VFR 21.1°C / 7.8°C 200º 9kt Gust 18kt >10km - Few Clouds 4000ft 1016 - KRNT 252153Z 20009G18KT 10SM FEW040 21/08 A3000 RMK AO2 SLP165 T02110078
VFR 20°C / 8.9°C 210º 8kt Gust 17kt >10km - Clear 1016 - KRNT 252053Z 21008G17KT 10SM CLR 20/09 A3001 RMK AO2 SLP167 T02000089 58002
VFR 19.4°C / 9.4°C 210º variable 160º to 230º 7kt Gust 16kt >10km - Scattered Clouds 3500ft 1016 - KRNT 251953Z 21007G16KT 160V230 10SM SCT035 19/09 A3002 RMK AO2 SLP169 T01940094
VFR 18.3°C / 8.9°C 220º 8kt Gust 18kt >10km - Clear 1017 - KRNT 251853Z 22008G18KT 10SM CLR 18/09 A3002 RMK AO2 SLP170 T01830089
VFR 16.7°C / 9.4°C 190º 10kt Gust 19kt >10km - Few Clouds 2600ft
Broken Clouds 3700ft
1016 - KRNT 251753Z 19010G19KT 10SM FEW026 BKN037 17/09 A3002 RMK AO2 SLP169 60000 T01670094 10167 20117 53005
VFR 16.1°C / 10°C 190º 8kt Gust 16kt >10km - Few Clouds 2200ft
Broken Clouds 3500ft
- KRNT 251724Z 19008G16KT 10SM FEW022 BKN035 16/10 A3002 RMK AO2 T01610100
MVFR 15.6°C / 10.6°C 190º 6kt Gust 17kt >10km - Broken Clouds 2200ft
Broken Clouds 2700ft
1016 - KRNT 251653Z 19006G17KT 10SM BKN022 BKN027 16/11 A3001 RMK AO2 SLP166 T01560106
MVFR 15.6°C / 11.1°C 190º 7kt >10km - Scattered Clouds 1800ft
Broken Clouds 2700ft
- KRNT 251634Z 19007KT 10SM SCT018 BKN027 16/11 A3000 RMK AO2 T01560111
MVFR 14.4°C / 11.1°C 170º 9kt >10km - Few Clouds 1600ft
Broken Clouds 3000ft
- KRNT 251614Z 17009KT 10SM FEW016 BKN030 14/11 A3000 RMK AO2 T01440111
MVFR 13.3°C / 11.1°C 160º 5kt >10km - Few Clouds 1200ft
Overcast 2900ft
1016 - KRNT 251553Z 16005KT 10SM FEW012 OVC029 13/11 A3001 RMK AO2 SLP166 T01330111
MVFR 13.3°C / 10.6°C 150º 4kt >10km - Broken Clouds 2700ft
Overcast 3300ft
- KRNT 251500Z 15004KT 10SM BKN027 OVC033 13/11 A3000 RMK AO2 T01330106
VFR 13°C / 11°C 170º 4kt >10km - Scattered Clouds 2700ft
Broken Clouds 3300ft
Overcast 9000ft
- KRNT 251449Z 17004KT 10SM SCT027 BKN033 OVC090 13/11 A3000 RMK AO2
MVFR 12.8°C / 10.6°C 170º 5kt >10km - Few Clouds 1300ft
Broken Clouds 2800ft
Overcast 3400ft
- KRNT 251425Z 17005KT 10SM FEW013 BKN028 OVC034 13/11 A2999 RMK AO2 T01280106
MVFR 12.2°C / 10.6°C 150º 4kt >10km - Few Clouds 1100ft
Overcast 3000ft
- KRNT 251408Z 15004KT 10SM FEW011 OVC030 12/11 A2999 RMK AO2 T01220106
MVFR 12.2°C / 10.6°C 130º 4kt >10km 0.13mm precipitation Broken Clouds 1000ft
Overcast 3000ft
1015 - KRNT 251353Z 13004KT 9SM BKN010 OVC030 12/11 A2999 RMK AO2 RAB31E52 SLP159 P0000 T01220106
MVFR 12°C / 11°C variable 4kt >10km Light Rain 0.13mm precipitation Scattered Clouds 1000ft
Overcast 3000ft
- KRNT 251349Z VRB04KT 8SM -RA SCT010 OVC030 12/11 A2999 RMK AO2 RAB31 P0000
MVFR 12.2°C / 10.6°C 150º 4kt >10km - Broken Clouds 1000ft
Broken Clouds 1400ft
Overcast 2600ft
- KRNT 251330Z 15004KT 10SM BKN010 BKN014 OVC026 12/11 A2999 RMK AO2 T01220106

VFR

15°C / 8.9°C

[Több]
Szél 360º 3kt
Látási viszonyok >10km
Időjárás -
Felhők Clear
Légnyomás 1015
Módosítás -
Nyers KRNT 260453Z 36003KT 10SM CLR 15/09 A2996 RMK AO2 SLP151 T01500089

VFR

16.7°C / 7.2°C

[Több]
Szél 310º 4kt
Látási viszonyok >10km
Időjárás -
Felhők Clear
Légnyomás 1014
Módosítás -
Nyers KRNT 260353Z 31004KT 10SM CLR 17/07 A2996 RMK AO2 SLP149 T01670072

VFR

18.9°C / 6.7°C

[Több]
Szél variable 3kt
Látási viszonyok >10km
Időjárás -
Felhők Clear
Légnyomás 1015
Módosítás -
Nyers KRNT 260253Z VRB03KT 10SM CLR 19/07 A2996 RMK AO2 SLP150 T01890067 56008

VFR

20°C / 7.2°C

[Több]
Szél 240º 6kt
Látási viszonyok >10km
Időjárás -
Felhők Clear
Légnyomás 1015
Módosítás -
Nyers KRNT 260153Z 24006KT 10SM CLR 20/07 A2996 RMK AO2 SLP151 T02000072

VFR

20.6°C / 7.8°C

[Több]
Szél variable 5kt
Látási viszonyok >10km
Időjárás -
Felhők Few Clouds 4000ft
Légnyomás 1015
Módosítás -
Nyers KRNT 260053Z VRB05KT 10SM FEW040 21/08 A2997 RMK AO2 SLP154 T02060078

VFR

21.1°C / 7.8°C

[Több]
Szél
Látási viszonyok >10km
Időjárás -
Felhők Clear
Légnyomás 1015
Módosítás -
Nyers KRNT 252353Z 10SM CLR 21/08 A2998 RMK AO2 SLP158 T02110078 10217 20172 58009

VFR

21.1°C / 7.8°C

[Több]
Szél 190º 7kt Gust 16kt
Látási viszonyok >10km
Időjárás -
Felhők Clear
Légnyomás 1016
Módosítás -
Nyers KRNT 252253Z 19007G16KT 10SM CLR 21/08 A3000 RMK AO2 SLP163 T02110078

VFR

21.1°C / 7.8°C

[Több]
Szél 200º 9kt Gust 18kt
Látási viszonyok >10km
Időjárás -
Felhők Few Clouds 4000ft
Légnyomás 1016
Módosítás -
Nyers KRNT 252153Z 20009G18KT 10SM FEW040 21/08 A3000 RMK AO2 SLP165 T02110078

VFR

20°C / 8.9°C

[Több]
Szél 210º 8kt Gust 17kt
Látási viszonyok >10km
Időjárás -
Felhők Clear
Légnyomás 1016
Módosítás -
Nyers KRNT 252053Z 21008G17KT 10SM CLR 20/09 A3001 RMK AO2 SLP167 T02000089 58002

VFR

19.4°C / 9.4°C

[Több]
Szél 210º variable 160º to 230º 7kt Gust 16kt
Látási viszonyok >10km
Időjárás -
Felhők Scattered Clouds 3500ft
Légnyomás 1016
Módosítás -
Nyers KRNT 251953Z 21007G16KT 160V230 10SM SCT035 19/09 A3002 RMK AO2 SLP169 T01940094

VFR

18.3°C / 8.9°C

[Több]
Szél 220º 8kt Gust 18kt
Látási viszonyok >10km
Időjárás -
Felhők Clear
Légnyomás 1017
Módosítás -
Nyers KRNT 251853Z 22008G18KT 10SM CLR 18/09 A3002 RMK AO2 SLP170 T01830089

VFR

16.7°C / 9.4°C

[Több]
Szél 190º 10kt Gust 19kt
Látási viszonyok >10km
Időjárás -
Felhők Few Clouds 2600ft
Broken Clouds 3700ft
Légnyomás 1016
Módosítás -
Nyers KRNT 251753Z 19010G19KT 10SM FEW026 BKN037 17/09 A3002 RMK AO2 SLP169 60000 T01670094 10167 20117 53005

VFR

16.1°C / 10°C

[Több]
Szél 190º 8kt Gust 16kt
Látási viszonyok >10km
Időjárás -
Felhők Few Clouds 2200ft
Broken Clouds 3500ft
Légnyomás
Módosítás -
Nyers KRNT 251724Z 19008G16KT 10SM FEW022 BKN035 16/10 A3002 RMK AO2 T01610100

MVFR

15.6°C / 10.6°C

[Több]
Szél 190º 6kt Gust 17kt
Látási viszonyok >10km
Időjárás -
Felhők Broken Clouds 2200ft
Broken Clouds 2700ft
Légnyomás 1016
Módosítás -
Nyers KRNT 251653Z 19006G17KT 10SM BKN022 BKN027 16/11 A3001 RMK AO2 SLP166 T01560106

MVFR

15.6°C / 11.1°C

[Több]
Szél 190º 7kt
Látási viszonyok >10km
Időjárás -
Felhők Scattered Clouds 1800ft
Broken Clouds 2700ft
Légnyomás
Módosítás -
Nyers KRNT 251634Z 19007KT 10SM SCT018 BKN027 16/11 A3000 RMK AO2 T01560111

MVFR

14.4°C / 11.1°C

[Több]
Szél 170º 9kt
Látási viszonyok >10km
Időjárás -
Felhők Few Clouds 1600ft
Broken Clouds 3000ft
Légnyomás
Módosítás -
Nyers KRNT 251614Z 17009KT 10SM FEW016 BKN030 14/11 A3000 RMK AO2 T01440111

MVFR

13.3°C / 11.1°C

[Több]
Szél 160º 5kt
Látási viszonyok >10km
Időjárás -
Felhők Few Clouds 1200ft
Overcast 2900ft
Légnyomás 1016
Módosítás -
Nyers KRNT 251553Z 16005KT 10SM FEW012 OVC029 13/11 A3001 RMK AO2 SLP166 T01330111

MVFR

13.3°C / 10.6°C

[Több]
Szél 150º 4kt
Látási viszonyok >10km
Időjárás -
Felhők Broken Clouds 2700ft
Overcast 3300ft
Légnyomás
Módosítás -
Nyers KRNT 251500Z 15004KT 10SM BKN027 OVC033 13/11 A3000 RMK AO2 T01330106

VFR

13°C / 11°C

[Több]
Szél 170º 4kt
Látási viszonyok >10km
Időjárás -
Felhők Scattered Clouds 2700ft
Broken Clouds 3300ft
Overcast 9000ft
Légnyomás
Módosítás -
Nyers KRNT 251449Z 17004KT 10SM SCT027 BKN033 OVC090 13/11 A3000 RMK AO2

MVFR

12.8°C / 10.6°C

[Több]
Szél 170º 5kt
Látási viszonyok >10km
Időjárás -
Felhők Few Clouds 1300ft
Broken Clouds 2800ft
Overcast 3400ft
Légnyomás
Módosítás -
Nyers KRNT 251425Z 17005KT 10SM FEW013 BKN028 OVC034 13/11 A2999 RMK AO2 T01280106

MVFR

12.2°C / 10.6°C

[Több]
Szél 150º 4kt
Látási viszonyok >10km
Időjárás -
Felhők Few Clouds 1100ft
Overcast 3000ft
Légnyomás
Módosítás -
Nyers KRNT 251408Z 15004KT 10SM FEW011 OVC030 12/11 A2999 RMK AO2 T01220106

MVFR

12.2°C / 10.6°C

[Több]
Szél 130º 4kt
Látási viszonyok >10km
Időjárás 0.13mm precipitation
Felhők Broken Clouds 1000ft
Overcast 3000ft
Légnyomás 1015
Módosítás -
Nyers KRNT 251353Z 13004KT 9SM BKN010 OVC030 12/11 A2999 RMK AO2 RAB31E52 SLP159 P0000 T01220106

MVFR

12°C / 11°C

[Több]
Szél variable 4kt
Látási viszonyok >10km
Időjárás Light Rain 0.13mm precipitation
Felhők Scattered Clouds 1000ft
Overcast 3000ft
Légnyomás
Módosítás -
Nyers KRNT 251349Z VRB04KT 8SM -RA SCT010 OVC030 12/11 A2999 RMK AO2 RAB31 P0000

MVFR

12.2°C / 10.6°C

[Több]
Szél 150º 4kt
Látási viszonyok >10km
Időjárás -
Felhők Broken Clouds 1000ft
Broken Clouds 1400ft
Overcast 2600ft
Légnyomás
Módosítás -
Nyers KRNT 251330Z 15004KT 10SM BKN010 BKN014 OVC026 12/11 A2999 RMK AO2 T01220106

Radarkép és ultrarövid távú csapadék-előrejelzés a következő helyhez: Renton

Szitáló eső
Enyhe
Mérsékelt
Erős
Nagyon nehéz
Jégeső

A helyzetjelző helye: Renton. Ez az animáció bemutatja a csapadékradart az elmúlt órára vonatkozóan, valamint előrejelzést az elkövetkező 1 órára. A szitáló eső vagy enyhe hóesés láthatatlan lehet a radar számára. A csapadék intenzitása színkóddal van jelölve, a világoskéktől a narancssárgáig.

Aktuális műholdas képek ezen a helyen: Renton, USA

A helyszín jelölő a következő helyen van elhelyezve: Renton. [Több]

A valós idejű műholdas kép ötvözi a nappali látható fényt az éjszakai infravörös sugárzással. Éjjel a kép nem sötét, mivel az infravörös sugárzás képes érzékelni a hőmérséklet-különbségeket. Sajnos az alacsony felhőket és a ködöt nehéz megkülönböztetni a talaj hőmérsékletétől, így az éjszaka folyamán szinte láthatatlanok lehetnek. A Meteosat európai műholdképei valós időben frissülnek minden 5 percben. A GOES-16/GOES-17 (Észak- és Dél-Amerika) és Himawari (Ázsia) képei 10 percenként frissülnek.

Vissza a tetejére